Time;durP1;ratioP1;P1;durP2;ratioP2;P2;SDS_P1;SDS_P2;PMS_P1;PMS_P2;Temp;Humidity;BMP_temperature;BMP_pressure;BME280_temperature;BME280_humidity;BME280_pressure;Samples;Min_cycle;Max_cycle;Signal;HPM_P1;HPM_P2
2023/03/08 00:22:27;;;;;;;4.35;2.50;;;;;;;1.91;51.03;99699.41;5058566;28;20280;-79
2023/03/08 00:24:55;;;;;;;5.75;2.78;;;;;;;1.95;50.77;99700.91;5041974;28;20512;-78
2023/03/08 00:27:23;;;;;;;3.97;2.40;;;;;;;1.98;50.76;99706.09;5039453;28;20045;-79
2023/03/08 00:29:51;;;;;;;4.45;2.75;;;;;;;2.00;50.82;99703.28;5039481;28;20051;-79
2023/03/08 00:32:18;;;;;;;4.82;2.63;;;;;;;2.02;50.77;99699.50;5051304;28;20064;-79
2023/03/08 00:34:51;;;;;;;7.72;2.95;;;;;;;2.04;50.97;99711.03;5048364;28;20048;-79
2023/03/08 00:37:19;;;;;;;6.18;2.83;;;;;;;2.05;50.85;99715.47;5040252;28;20623;-78
2023/03/08 00:39:51;;;;;;;5.40;3.05;;;;;;;2.09;51.03;99716.09;5037917;28;20057;-79
2023/03/08 00:42:20;;;;;;;5.72;2.95;;;;;;;2.06;50.78;99717.22;5037403;28;20045;-78
2023/03/08 00:44:48;;;;;;;5.05;2.92;;;;;;;2.09;50.69;99705.31;5062503;28;20460;-78
2023/03/08 00:47:17;;;;;;;5.22;2.97;;;;;;;2.11;50.86;99708.78;5039158;28;20076;-78
2023/03/08 00:49:45;;;;;;;5.35;3.10;;;;;;;2.11;50.69;99711.47;5029423;28;20081;-78
2023/03/08 00:52:14;;;;;;;5.43;3.20;;;;;;;2.10;50.75;99707.91;5043706;28;20047;-79
2023/03/08 00:54:44;;;;;;;6.75;3.40;;;;;;;2.10;50.58;99713.31;5062429;28;20124;-79
2023/03/08 00:57:15;;;;;;;5.60;3.05;;;;;;;2.12;50.79;99703.28;5059721;28;20096;-78
2023/03/08 00:59:43;;;;;;;4.55;3.03;;;;;;;2.11;50.72;99703.38;5046579;28;20469;-78
2023/03/08 01:02:12;;;;;;;5.80;3.30;;;;;;;2.09;50.69;99698.06;5065616;28;20110;-78
2023/03/08 01:04:40;;;;;;;6.35;3.55;;;;;;;2.08;50.69;99692.81;5055919;28;20043;-78
2023/03/08 01:07:08;;;;;;;6.20;3.50;;;;;;;2.07;50.45;99691.94;5053991;28;20057;-78
2023/03/08 01:09:38;;;;;;;6.78;3.22;;;;;;;2.06;50.69;99681.25;5053606;28;20045;-78
2023/03/08 01:12:06;;;;;;;6.15;3.60;;;;;;;2.05;50.48;99679.53;5049293;28;20136;-78
2023/03/08 01:14:35;;;;;;;6.03;3.47;;;;;;;2.04;50.65;99681.34;5057031;28;20480;-78
2023/03/08 01:17:03;;;;;;;6.07;3.30;;;;;;;2.02;50.44;99675.19;5037370;28;20045;-78
2023/03/08 01:19:31;;;;;;;6.82;3.50;;;;;;;2.02;50.66;99671.63;5030902;28;20554;-79
2023/03/08 01:21:58;;;;;;;6.63;3.58;;;;;;;2.01;50.72;99668.06;5059067;28;20035;-79
2023/03/08 01:24:26;;;;;;;6.00;3.63;;;;;;;2.01;50.57;99664.50;5040196;28;20472;-78
2023/03/08 01:26:59;;;;;;;7.03;3.40;;;;;;;1.99;50.67;99664.66;5042824;28;20041;-79
2023/03/08 01:29:27;;;;;;;6.13;3.70;;;;;;;2.00;50.76;99660.13;5046849;28;20047;-78
2023/03/08 01:31:59;;;;;;;6.88;3.53;;;;;;;2.00;50.67;99662.81;5062280;28;20041;-79
2023/03/08 01:34:27;;;;;;;6.40;3.70;;;;;;;1.99;50.85;99661.94;5055047;28;20059;-79
2023/03/08 01:36:55;;;;;;;8.45;3.95;;;;;;;1.99;50.77;99663.78;5045720;28;20037;-78
2023/03/08 01:39:23;;;;;;;5.65;3.35;;;;;;;2.00;50.91;99668.22;5039277;28;20508;-79
2023/03/08 01:41:50;;;;;;;6.25;3.35;;;;;;;2.00;50.98;99662.81;5056781;28;20041;-78
2023/03/08 01:44:21;;;;;;;6.25;3.35;;;;;;;2.01;51.18;99653.72;5039399;28;20048;-78
2023/03/08 01:46:50;;;;;;;7.07;3.55;;;;;;;2.01;51.11;99648.31;5048994;28;20420;-78
2023/03/08 01:49:33;;;;;;;6.65;3.58;;;;;;;2.03;51.14;99640.97;5034660;28;20048;-78
2023/03/08 01:52:06;;;;;;;6.60;3.33;;;;;;;2.03;51.10;99640.97;5041725;28;20091;-78
2023/03/08 01:54:39;;;;;;;7.85;3.50;;;;;;;2.02;51.26;99641.94;5039653;28;20045;-78
2023/03/08 01:57:15;;;;;;;5.53;3.30;;;;;;;2.03;51.12;99636.44;5053612;28;20040;-78
2023/03/08 01:59:43;;;;;;;4.80;3.00;;;;;;;2.04;51.18;99632.78;5036801;28;20092;-78
2023/03/08 02:02:11;;;;;;;6.93;3.70;;;;;;;2.03;51.00;99631.06;5055299;28;20041;-78
2023/03/08 02:04:41;;;;;;;6.65;4.00;;;;;;;2.03;51.02;99625.66;5043436;28;20048;-78
2023/03/08 02:07:12;;;;;;;5.78;3.58;;;;;;;2.00;50.96;99612.38;5036425;28;20468;-78
2023/03/08 02:09:41;;;;;;;6.22;3.50;;;;;;;2.00;50.96;99604.28;5035481;28;20545;-77
2023/03/08 02:12:13;;;;;;;6.68;3.85;;;;;;;2.01;50.67;99595.22;5036263;28;20717;-78
2023/03/08 02:14:42;;;;;;;7.65;3.92;;;;;;;1.99;50.99;99593.63;5065871;28;20131;-78
2023/03/08 02:17:11;;;;;;;7.82;3.97;;;;;;;1.98;50.71;99591.91;5026868;28;20108;-78
2023/03/08 02:19:45;;;;;;;6.38;3.83;;;;;;;1.99;51.05;99599.03;5026136;28;21081;-78
2023/03/08 02:22:15;;;;;;;8.00;4.30;;;;;;;1.97;50.99;99588.34;5033704;28;20052;-78
2023/03/08 02:24:44;;;;;;;7.30;4.03;;;;;;;1.97;51.17;99584.78;5032090;28;20049;-78
2023/03/08 02:27:16;;;;;;;8.27;4.60;;;;;;;1.97;51.31;99592.88;5038298;28;20569;-78
2023/03/08 02:29:45;;;;;;;7.13;4.30;;;;;;;1.95;51.26;99589.41;5038377;28;20049;-78
2023/03/08 02:32:14;;;;;;;7.05;4.10;;;;;;;1.97;51.15;99591.03;5033972;28;20041;-77
2023/03/08 02:34:42;;;;;;;7.55;4.30;;;;;;;1.98;51.20;99598.16;5026028;28;20388;-78
2023/03/08 02:37:12;;;;;;;7.88;4.03;;;;;;;1.99;51.22;99599.03;5041784;28;20420;-77
2023/03/08 02:39:40;;;;;;;7.03;4.45;;;;;;;1.99;51.19;99591.78;5050295;28;20057;-78
2023/03/08 02:42:09;;;;;;;7.45;4.57;;;;;;;2.01;51.25;99591.66;5051636;28;20045;-78
2023/03/08 02:44:37;;;;;;;7.90;4.28;;;;;;;2.00;51.25;99589.97;5048592;28;20049;-78
2023/03/08 02:47:05;;;;;;;7.40;4.57;;;;;;;2.01;51.17;99580.84;5034867;28;20076;-77
2023/03/08 02:49:33;;;;;;;10.45;5.00;;;;;;;2.01;51.20;99573.63;5042517;28;20708;-77
2023/03/08 02:52:00;;;;;;;7.38;4.38;;;;;;;2.01;51.03;99578.16;5038321;28;20564;-78
2023/03/08 02:54:28;;;;;;;10.25;4.63;;;;;;;2.03;51.23;99565.44;5040091;28;20049;-78
2023/03/08 02:56:56;;;;;;;7.38;4.50;;;;;;;2.01;51.18;99565.53;5034469;28;20037;-78
2023/03/08 02:59:26;;;;;;;8.43;4.55;;;;;;;2.03;50.97;99560.03;5054705;28;20037;-78
2023/03/08 03:01:56;;;;;;;7.32;4.00;;;;;;;2.01;51.25;99568.22;5040055;28;20551;-78
2023/03/08 03:04:24;;;;;;;6.80;3.80;;;;;;;2.01;51.08;99565.53;5047301;28;20047;-78
2023/03/08 03:06:52;;;;;;;7.20;4.10;;;;;;;2.02;51.22;99561.00;5033268;28;20048;-78
2023/03/08 03:09:20;;;;;;;7.63;4.22;;;;;;;2.02;51.17;99567.25;5035949;28;20041;-78
2023/03/08 03:11:48;;;;;;;8.13;4.85;;;;;;;2.03;51.21;99566.28;5054490;28;20048;-78
2023/03/08 03:14:16;;;;;;;7.88;4.50;;;;;;;2.03;51.24;99551.94;5029576;28;20532;-78
2023/03/08 03:16:47;;;;;;;7.50;4.50;;;;;;;2.04;51.50;99542.88;5043517;28;20469;-78
2023/03/08 03:19:14;;;;;;;7.55;4.25;;;;;;;2.03;51.17;99547.41;5032610;28;20075;-78
2023/03/08 03:21:42;;;;;;;7.95;4.25;;;;;;;2.04;51.36;99540.16;5051029;28;20115;-78
2023/03/08 03:24:10;;;;;;;8.50;4.63;;;;;;;2.05;51.23;99536.50;5055189;28;20044;-78
2023/03/08 03:26:44;;;;;;;8.90;4.43;;;;;;;2.04;51.34;99537.47;5035205;28;20473;-78
2023/03/08 03:29:15;;;;;;;8.77;4.50;;;;;;;2.03;51.31;99533.91;5061173;28;20044;-78
2023/03/08 03:31:44;;;;;;;7.55;4.25;;;;;;;2.05;51.22;99523.88;5044043;28;20144;-78
2023/03/08 03:34:15;;;;;;;9.02;4.90;;;;;;;2.05;51.18;99523.00;5041470;28;20063;-78
2023/03/08 03:36:44;;;;;;;8.57;4.70;;;;;;;2.04;51.18;99515.88;5057489;28;20402;-77
2023/03/08 03:39:12;;;;;;;7.90;4.40;;;;;;;2.03;51.21;99508.75;5031338;28;20068;-78
2023/03/08 03:41:41;;;;;;;9.05;5.10;;;;;;;2.02;51.00;99518.69;5040939;28;20087;-79
2023/03/08 03:44:12;;;;;;;9.90;5.15;;;;;;;2.01;51.06;99519.66;5035862;28;20051;-79
2023/03/08 03:46:43;;;;;;;10.65;5.15;;;;;;;2.01;51.14;99521.50;5054610;28;20045;-79
2023/03/08 03:49:15;;;;;;;9.68;5.38;;;;;;;2.00;51.06;99512.53;5039182;28;20543;-79
2023/03/08 03:51:45;;;;;;;10.13;5.68;;;;;;;1.98;50.98;99501.03;5032376;28;20068;-78
2023/03/08 03:54:26;;;;;;;8.50;4.90;;;;;;;1.98;51.17;99519.03;5052668;28;20045;-79
2023/03/08 03:56:59;;;;;;;8.32;5.10;;;;;;;1.96;50.98;99516.44;5044964;28;20504;-77
2023/03/08 03:59:32;;;;;;;8.73;4.85;;;;;;;1.95;51.18;99511.16;5045323;28;20637;-77
2023/03/08 04:02:01;;;;;;;10.82;6.10;;;;;;;1.93;51.11;99505.00;5041295;28;20049;-79
2023/03/08 04:04:45;;;;;;;10.95;5.47;;;;;;;1.91;51.25;99497.06;5035163;28;20047;-78
2023/03/08 04:07:14;;;;;;;11.73;5.75;;;;;;;1.90;51.13;99489.06;5046812;28;20508;-77
2023/03/08 04:09:49;;;;;;;11.07;5.90;;;;;;;1.88;51.17;99481.09;5030255;28;20049;-80
2023/03/08 04:12:17;;;;;;;9.93;5.57;;;;;;;1.88;51.22;99498.13;5037621;28;20119;-78
2023/03/08 04:14:45;;;;;;;11.48;6.53;;;;;;;1.87;51.44;99485.63;5024109;28;20051;-79
2023/03/08 04:17:14;;;;;;;11.18;6.70;;;;;;;1.87;51.28;99490.16;5025794;28;20148;-78
2023/03/08 04:19:49;;;;;;;13.40;7.45;;;;;;;1.86;51.58;99478.50;5030026;28;20124;-76
2023/03/08 04:22:19;;;;;;;13.18;7.35;;;;;;;1.84;51.41;99477.72;5030959;28;20049;-77
2023/03/08 04:24:58;;;;;;;13.98;7.22;;;;;;;1.82;51.32;99471.63;5025151;28;20060;-77
2023/03/08 04:27:34;;;;;;;14.23;8.18;;;;;;;1.81;51.19;99461.78;5031358;28;20052;-79
2023/03/08 04:30:03;;;;;;;16.83;8.35;;;;;;;1.80;51.30;99462.75;5030002;28;20106;-76
2023/03/08 04:32:32;;;;;;;13.20;7.75;;;;;;;1.82;51.06;99462.66;5030667;28;20092;-77
2023/03/08 04:35:01;;;;;;;12.65;7.47;;;;;;;1.80;51.19;99461.91;5029970;28;20416;-77
2023/03/08 04:37:31;;;;;;;13.18;8.05;;;;;;;1.76;51.19;99455.84;5024954;28;20049;-77
2023/03/08 04:40:13;;;;;;;14.32;8.10;;;;;;;1.76;51.20;99455.00;5049986;28;20037;-77
2023/03/08 04:42:47;;;;;;;14.88;8.55;;;;;;;1.74;51.32;99448.88;5023647;28;20052;-77
2023/03/08 04:45:19;;;;;;;14.88;8.57;;;;;;;1.74;51.08;99447.03;5033881;28;20574;-77
2023/03/08 04:47:47;;;;;;;14.60;8.05;;;;;;;1.74;51.41;99440.78;5052291;28;20508;-77
2023/03/08 04:50:17;;;;;;;14.23;8.15;;;;;;;1.74;51.34;99433.56;5030626;28;20128;-77
2023/03/08 04:52:45;;;;;;;14.90;8.23;;;;;;;1.72;51.25;99426.53;5035116;28;20052;-77
2023/03/08 04:55:12;;;;;;;14.93;8.50;;;;;;;1.72;51.32;99422.00;5040026;28;20049;-77
2023/03/08 04:57:40;;;;;;;15.30;8.73;;;;;;;1.71;51.22;99416.72;5034500;28;20144;-77
2023/03/08 05:00:10;;;;;;;13.88;8.70;;;;;;;1.70;51.39;99418.56;5030037;28;20040;-77
2023/03/08 05:02:39;;;;;;;14.27;8.00;;;;;;;1.67;51.27;99413.38;5017266;28;20045;-77
2023/03/08 05:05:12;;;;;;;15.88;9.23;;;;;;;1.64;51.05;99404.66;5034310;28;20037;-77
2023/03/08 05:07:42;;;;;;;15.20;8.95;;;;;;;1.63;51.38;99409.19;5034388;28;20087;-77
2023/03/08 05:10:11;;;;;;;15.52;8.48;;;;;;;1.64;51.36;99404.66;5047899;28;20049;-77
2023/03/08 05:12:40;;;;;;;14.18;8.50;;;;;;;1.61;50.95;99389.56;5034675;28;20497;-77
2023/03/08 05:15:09;;;;;;;15.20;8.63;;;;;;;1.60;51.09;99390.53;5033039;28;20091;-77
2023/03/08 05:17:37;;;;;;;14.05;7.82;;;;;;;1.59;51.38;99390.69;5032998;28;20497;-77
2023/03/08 05:20:07;;;;;;;14.35;7.93;;;;;;;1.57;51.41;99396.19;5050215;28;20053;-77
2023/03/08 05:22:38;;;;;;;13.45;7.35;;;;;;;1.55;51.18;99375.69;5039855;28;20562;-77
2023/03/08 05:25:29;;;;;;;13.90;7.32;;;;;;;1.53;51.32;99362.31;5032683;28;20526;-77
2023/03/08 05:27:58;;;;;;;10.80;6.50;;;;;;;1.53;51.29;99362.31;5026636;28;20049;-77
2023/03/08 05:30:26;;;;;;;12.77;6.63;;;;;;;1.53;51.13;99365.00;5032074;28;20064;-77
2023/03/08 05:32:54;;;;;;;12.38;7.13;;;;;;;1.51;51.15;99361.56;5039353;28;20045;-77
2023/03/08 05:35:21;;;;;;;13.27;6.78;;;;;;;1.49;51.14;99364.38;5032392;28;20132;-77
2023/03/08 05:37:51;;;;;;;13.40;6.97;;;;;;;1.49;51.44;99358.13;5032968;28;20053;-77
2023/03/08 05:40:18;;;;;;;12.73;7.13;;;;;;;1.46;51.43;99350.25;5032338;28;20103;-77
2023/03/08 05:42:48;;;;;;;14.45;7.70;;;;;;;1.45;51.40;99346.69;5026641;28;20052;-77
2023/03/08 05:45:16;;;;;;;13.63;7.07;;;;;;;1.45;51.47;99344.00;5041952;28;20051;-77
2023/03/08 05:47:45;;;;;;;11.73;6.38;;;;;;;1.45;51.42;99340.44;5050890;28;20090;-77
2023/03/08 05:50:12;;;;;;;12.65;6.43;;;;;;;1.44;51.29;99330.63;5032000;28;20040;-77
2023/03/08 05:52:42;;;;;;;12.18;6.93;;;;;;;1.44;51.38;99330.63;5032435;28;20080;-77
2023/03/08 05:55:13;;;;;;;12.90;7.13;;;;;;;1.44;51.37;99328.81;5032324;28;20076;-77
2023/03/08 05:57:42;;;;;;;11.90;6.50;;;;;;;1.44;51.32;99317.16;5033682;28;20064;-77
2023/03/08 06:00:13;;;;;;;12.50;7.07;;;;;;;1.43;51.56;99312.75;5032649;28;20033;-77
2023/03/08 06:02:49;;;;;;;12.65;7.00;;;;;;;1.41;51.44;99298.53;5026569;28;20136;-77
2023/03/08 06:05:18;;;;;;;10.68;6.45;;;;;;;1.39;51.31;99295.94;5033025;28;20072;-77
2023/03/08 06:07:46;;;;;;;11.95;6.90;;;;;;;1.39;51.36;99287.00;5027464;28;20128;-77
2023/03/08 06:10:15;;;;;;;16.35;6.43;;;;;;;1.37;51.40;99289.81;5032299;28;20045;-77
2023/03/08 06:12:44;;;;;;;9.45;5.30;;;;;;;1.37;51.31;99291.63;5048151;28;20080;-77
2023/03/08 06:15:17;;;;;;;11.52;6.25;;;;;;;1.37;51.43;99278.16;5033256;28;20041;-77
2023/03/08 06:17:45;;;;;;;9.90;5.40;;;;;;;1.35;51.24;99269.31;5032711;28;20149;-77
2023/03/08 06:20:17;;;;;;;10.25;5.45;;;;;;;1.34;51.28;99268.47;5031536;28;20414;-77
2023/03/08 06:22:48;;;;;;;11.85;6.18;;;;;;;1.32;51.26;99242.63;5039070;28;20083;-77
2023/03/08 06:25:16;;;;;;;9.55;5.68;;;;;;;1.32;51.37;99248.88;5036249;28;20037;-77
2023/03/08 06:27:46;;;;;;;7.90;4.57;;;;;;;1.30;51.12;99240.03;5036472;28;20045;-77
2023/03/08 06:30:26;;;;;;;8.02;4.38;;;;;;;1.29;51.14;99232.91;5030830;28;20068;-77
2023/03/08 06:32:54;;;;;;;8.32;4.50;;;;;;;1.28;51.04;99227.63;5025352;28;20052;-77
2023/03/08 06:35:22;;;;;;;8.43;4.70;;;;;;;1.23;51.08;99219.91;5032520;28;20040;-77
2023/03/08 06:37:56;;;;;;;7.30;3.92;;;;;;;1.25;51.13;99226.06;5026644;28;20076;-77
2023/03/08 06:40:23;;;;;;;8.82;3.92;;;;;;;1.23;51.05;99221.75;5035466;28;20047;-77
2023/03/08 06:42:52;;;;;;;6.70;4.00;;;;;;;1.22;51.22;99220.03;5026495;28;20536;-77
2023/03/08 06:45:20;;;;;;;8.30;3.83;;;;;;;1.21;51.27;99213.78;5029402;28;20412;-77
2023/03/08 06:47:50;;;;;;;6.72;3.83;;;;;;;1.21;51.32;99213.78;5038997;28;20041;-77
2023/03/08 06:50:18;;;;;;;7.70;4.43;;;;;;;1.20;51.40;99216.56;5030695;28;20091;-77
2023/03/08 06:52:48;;;;;;;8.45;4.15;;;;;;;1.18;51.48;99205.91;5021843;28;20485;-77
2023/03/08 06:55:20;;;;;;;8.23;4.00;;;;;;;1.18;51.49;99205.91;5031448;28;20147;-77
2023/03/08 06:57:54;;;;;;;6.95;3.92;;;;;;;1.21;51.95;99202.13;5032281;28;20295;-77
2023/03/08 07:00:23;;;;;;;6.65;3.42;;;;;;;1.21;51.59;99203.00;5038623;28;20055;-77
2023/03/08 07:02:52;;;;;;;8.13;4.07;;;;;;;1.20;51.78;99195.03;5033201;28;20045;-78
2023/03/08 07:05:20;;;;;;;8.27;4.22;;;;;;;1.21;51.53;99188.66;5050459;28;20047;-77
2023/03/08 07:07:48;;;;;;;8.38;4.40;;;;;;;1.19;51.36;99180.69;5043312;28;20037;-77
2023/03/08 07:10:18;;;;;;;7.22;3.97;;;;;;;1.21;51.69;99170.66;5049933;28;20124;-78
2023/03/08 07:12:48;;;;;;;6.03;3.45;;;;;;;1.21;51.63;99178.75;5046217;28;20033;-78
2023/03/08 07:15:18;;;;;;;7.28;4.00;;;;;;;1.22;51.62;99185.84;5055678;28;20049;-78
2023/03/08 07:17:47;;;;;;;7.32;4.03;;;;;;;1.21;51.47;99184.13;5028663;28;20053;-79
2023/03/08 07:20:18;;;;;;;7.75;4.00;;;;;;;1.22;51.68;99174.22;5029697;28;20072;-78
2023/03/08 07:22:46;;;;;;;8.35;3.95;;;;;;;1.22;51.67;99168.81;5050410;28;20404;-78
2023/03/08 07:25:15;;;;;;;6.85;3.90;;;;;;;1.22;51.66;99164.28;5042210;28;20037;-78
2023/03/08 07:27:43;;;;;;;7.65;4.43;;;;;;;1.22;51.89;99171.53;5036384;28;20041;-78
2023/03/08 07:30:14;;;;;;;8.80;5.30;;;;;;;1.20;51.76;99166.25;5054420;28;20044;-77
2023/03/08 07:32:42;;;;;;;10.88;5.47;;;;;;;1.19;51.83;99159.13;5056712;28;20467;-77
2023/03/08 07:35:12;;;;;;;9.07;5.40;;;;;;;1.18;52.00;99156.56;5054893;28;20068;-78
2023/03/08 07:37:44;;;;;;;9.52;5.32;;;;;;;1.17;51.97;99155.72;5037640;28;20864;-78
2023/03/08 07:40:14;;;;;;;9.77;5.20;;;;;;;1.14;51.85;99157.78;5050421;28;20071;-78
2023/03/08 07:42:42;;;;;;;8.80;4.90;;;;;;;1.11;51.75;99153.47;5049469;28;20044;-78
2023/03/08 07:45:22;;;;;;;8.52;4.85;;;;;;;1.08;52.05;99141.09;5036153;28;20051;-78
2023/03/08 07:47:51;;;;;;;7.78;4.95;;;;;;;1.07;52.14;99141.22;5041948;28;20139;-78
2023/03/08 07:50:19;;;;;;;7.88;4.35;;;;;;;1.07;51.83;99136.69;5049946;28;20052;-78
2023/03/08 07:52:49;;;;;;;7.53;4.03;;;;;;;1.09;52.17;99131.19;5026823;28;20041;-78
2023/03/08 07:55:17;;;;;;;9.10;4.95;;;;;;;1.04;52.12;99117.19;5032221;28;20132;-77
2023/03/08 07:57:45;;;;;;;9.50;4.93;;;;;;;1.02;52.09;99116.44;5037810;28;20139;-77
2023/03/08 08:00:14;;;;;;;7.20;4.15;;;;;;;1.03;51.97;99115.47;5030045;28;20468;-77
2023/03/08 08:02:42;;;;;;;9.02;4.80;;;;;;;0.99;52.18;99111.31;5031848;28;20496;-78
2023/03/08 08:05:09;;;;;;;7.63;3.90;;;;;;;1.00;52.02;99113.03;5031151;28;20423;-77
2023/03/08 08:07:37;;;;;;;7.18;3.97;;;;;;;0.98;52.17;99104.19;5031790;28;20037;-77
2023/03/08 08:10:07;;;;;;;7.20;3.90;;;;;;;0.99;52.55;99114.00;5048752;28;20041;-78
2023/03/08 08:12:35;;;;;;;6.88;4.20;;;;;;;0.97;52.19;99099.78;5049815;28;20032;-77
2023/03/08 08:15:03;;;;;;;6.72;3.92;;;;;;;0.98;52.17;99102.38;5056409;28;20057;-78
2023/03/08 08:17:31;;;;;;;7.68;3.88;;;;;;;0.99;52.19;99092.44;5029626;28;20091;-78
2023/03/08 08:19:59;;;;;;;6.63;3.75;;;;;;;0.99;52.10;99085.22;5051764;28;20401;-78
2023/03/08 08:22:27;;;;;;;6.80;3.75;;;;;;;1.00;52.24;99081.56;5024691;28;20095;-77
2023/03/08 08:24:54;;;;;;;7.22;4.05;;;;;;;1.01;52.13;99072.47;5031641;28;20037;-76
2023/03/08 08:27:24;;;;;;;8.02;4.63;;;;;;;1.03;52.16;99066.97;5041260;28;20060;-77
2023/03/08 08:29:51;;;;;;;7.05;3.97;;;;;;;1.03;52.15;99072.38;5056667;28;20096;-77
2023/03/08 08:32:19;;;;;;;6.88;3.80;;;;;;;1.04;52.19;99058.78;5032745;28;20067;-77
2023/03/08 08:34:47;;;;;;;7.40;3.97;;;;;;;1.05;52.23;99055.13;5036997;28;20069;-77
2023/03/08 08:37:15;;;;;;;7.53;3.90;;;;;;;1.05;52.03;99044.34;5037254;28;20500;-77
2023/03/08 08:39:43;;;;;;;8.85;4.57;;;;;;;1.07;52.44;99044.22;5026124;28;20103;-76
2023/03/08 08:42:10;;;;;;;7.95;4.35;;;;;;;1.06;52.52;99032.59;5033221;28;20041;-77
2023/03/08 08:44:39;;;;;;;7.75;4.18;;;;;;;1.08;52.44;99038.72;5048996;28;20087;-77
2023/03/08 08:47:07;;;;;;;8.88;4.47;;;;;;;1.07;52.33;99031.63;5052502;28;20045;-77
2023/03/08 08:49:35;;;;;;;7.38;3.88;;;;;;;1.08;52.11;99041.44;5053272;28;20096;-77
2023/03/08 08:52:04;;;;;;;7.85;4.47;;;;;;;1.10;52.46;99036.75;5052172;28;20057;-76
2023/03/08 08:54:32;;;;;;;7.75;4.32;;;;;;;1.09;52.41;99026.94;5056336;28;20037;-77
2023/03/08 08:57:00;;;;;;;7.00;4.00;;;;;;;1.10;52.47;99019.72;5054171;28;20148;-77
2023/03/08 08:59:28;;;;;;;8.13;4.65;;;;;;;1.09;52.35;99002.69;5034482;28;20040;-77
2023/03/08 09:01:57;;;;;;;7.28;4.22;;;;;;;1.12;52.66;99020.47;5035565;28;20471;-77
2023/03/08 09:04:25;;;;;;;8.63;4.65;;;;;;;1.09;52.40;99013.47;5051241;28;20045;-77
2023/03/08 09:06:53;;;;;;;8.48;4.55;;;;;;;1.10;52.33;98995.47;5052093;28;20501;-77
2023/03/08 09:09:21;;;;;;;8.48;5.30;;;;;;;1.07;52.73;98980.44;5034703;28;20041;-77
2023/03/08 09:11:48;;;;;;;7.45;4.65;;;;;;;1.07;52.50;98982.28;5034313;28;20045;-77
2023/03/08 09:14:22;;;;;;;7.72;4.30;;;;;;;1.08;52.64;98994.78;5050736;28;20119;-77
2023/03/08 09:16:51;;;;;;;6.68;3.97;;;;;;;1.06;52.47;98992.19;5051793;28;20386;-77
2023/03/08 09:19:20;;;;;;;8.73;4.43;;;;;;;1.07;52.52;98990.34;5032412;28;20391;-77
2023/03/08 09:21:48;;;;;;;7.22;4.00;;;;;;;1.07;52.47;98984.97;5050217;28;20044;-77
2023/03/08 09:24:16;;;;;;;9.23;4.10;;;;;;;1.08;52.64;98992.06;5050328;28;20045;-77
2023/03/08 09:26:44;;;;;;;6.68;3.58;;;;;;;1.09;52.58;98980.31;5052201;28;20392;-77
2023/03/08 09:29:12;;;;;;;7.85;4.20;;;;;;;1.09;52.76;98973.06;5039081;28;20048;-77
2023/03/08 09:31:41;;;;;;;6.95;3.80;;;;;;;1.11;52.67;98968.44;5051818;28;20033;-77
2023/03/08 09:34:12;;;;;;;7.05;3.83;;;;;;;1.15;52.76;98970.91;5032360;28;20130;-77
2023/03/08 09:36:42;;;;;;;6.32;4.20;;;;;;;1.16;52.87;98962.69;5032812;28;20103;-77
2023/03/08 09:39:12;;;;;;;6.78;4.03;;;;;;;1.18;52.87;98959.88;5049832;28;20045;-77
2023/03/08 09:41:46;;;;;;;7.05;4.13;;;;;;;1.21;53.33;98960.47;5032474;28;20049;-77
2023/03/08 09:44:42;;;;;;;7.28;3.90;;;;;;;1.23;53.34;98963.06;5050248;28;20053;-77
2023/03/08 09:47:16;;;;;;;7.82;4.32;;;;;;;1.23;53.21;98963.06;5047926;28;20488;-77
2023/03/08 09:49:46;;;;;;;6.50;3.88;;;;;;;1.26;52.77;98968.22;5049678;28;20804;-77
2023/03/08 09:52:22;;;;;;;7.72;4.13;;;;;;;1.29;53.10;98966.13;5033212;28;20048;-77
2023/03/08 09:54:51;;;;;;;7.03;4.28;;;;;;;1.29;52.97;98962.56;5043929;28;20048;-77
2023/03/08 09:57:24;;;;;;;7.65;3.90;;;;;;;1.32;53.08;98962.34;5033003;28;20040;-77
2023/03/08 09:59:55;;;;;;;6.35;3.97;;;;;;;1.31;53.11;98958.78;5026470;28;20045;-77
2023/03/08 10:02:36;;;;;;;7.10;4.30;;;;;;;1.37;53.41;98960.13;5032437;28;20048;-77
2023/03/08 10:05:12;;;;;;;7.70;4.55;;;;;;;1.35;53.16;98957.53;5032285;28;20044;-77
2023/03/08 10:07:50;;;;;;;9.32;5.40;;;;;;;1.38;53.36;98942.97;5049818;28;20548;-76
2023/03/08 10:10:33;;;;;;;8.27;5.18;;;;;;;1.39;53.34;98942.00;5050181;28;20511;-77
2023/03/08 10:13:18;;;;;;;8.23;4.85;;;;;;;1.35;53.52;98949.44;5046708;28;20127;-78
2023/03/08 10:15:51;;;;;;;8.45;4.90;;;;;;;1.37;53.15;98950.19;5057018;28;20033;-77
2023/03/08 10:18:34;;;;;;;9.52;5.03;;;;;;;1.36;53.83;98944.91;5051029;28;20055;-77
2023/03/08 10:21:03;;;;;;;9.23;4.90;;;;;;;1.35;52.98;98943.19;5053791;28;20125;-77
2023/03/08 10:23:33;;;;;;;8.18;5.15;;;;;;;1.36;53.08;98931.44;5061676;28;20675;-77
2023/03/08 10:26:02;;;;;;;7.68;5.10;;;;;;;1.36;52.84;98932.31;5065364;28;20072;-77
2023/03/08 10:28:30;;;;;;;6.50;4.95;;;;;;;1.35;53.01;98932.41;5064357;28;20044;-77
2023/03/08 10:30:59;;;;;;;8.10;4.97;;;;;;;1.34;53.00;98933.44;5040765;28;20051;-79
2023/03/08 10:33:33;;;;;;;8.10;5.47;;;;;;;1.36;53.53;98936.84;5053320;28;20041;-77
2023/03/08 10:36:05;;;;;;;6.57;4.85;;;;;;;1.36;52.87;98940.38;5051470;28;20059;-79
2023/03/08 10:38:36;;;;;;;7.13;4.50;;;;;;;1.37;53.39;98934.03;5033693;28;20049;-79
2023/03/08 10:41:06;;;;;;;8.27;4.63;;;;;;;1.37;53.36;98928.63;5049441;28;20483;-79
2023/03/08 10:43:39;;;;;;;7.05;4.63;;;;;;;1.39;53.43;98921.28;5021432;28;20045;-77
2023/03/08 10:46:13;;;;;;;8.52;4.63;;;;;;;1.41;53.50;98913.09;5032141;28;20051;-77
2023/03/08 10:48:41;;;;;;;7.25;4.55;;;;;;;1.42;53.27;98921.03;5027611;28;20061;-77
2023/03/08 10:51:17;;;;;;;6.97;4.75;;;;;;;1.47;53.72;98916.13;5048741;28;20071;-77
2023/03/08 10:53:54;;;;;;;6.80;4.82;;;;;;;1.50;53.91;98912.34;5031696;28;20095;-77
2023/03/08 10:56:26;;;;;;;6.97;4.68;;;;;;;1.53;53.50;98895.03;5033642;28;20314;-76
2023/03/08 10:58:55;;;;;;;7.22;4.78;;;;;;;1.55;53.29;98887.69;5018379;28;20079;-77
2023/03/08 11:01:26;;;;;;;7.47;4.75;;;;;;;1.57;53.27;98883.91;5029529;28;20053;-77
2023/03/08 11:04:02;;;;;;;7.93;5.32;;;;;;;1.62;53.85;98883.50;5048588;28;20037;-76
2023/03/08 11:06:30;;;;;;;8.35;4.72;;;;;;;1.61;53.51;98890.75;5031419;28;20060;-77
2023/03/08 11:09:03;;;;;;;8.45;4.82;;;;;;;1.65;53.58;98885.97;5047543;28;20073;-77
2023/03/08 11:11:40;;;;;;;7.82;4.75;;;;;;;1.66;54.14;98876.91;5044298;28;20071;-77
2023/03/08 11:14:10;;;;;;;7.30;4.88;;;;;;;1.68;53.56;98883.84;5027341;28;20065;-77
2023/03/08 11:17:05;;;;;;;8.38;4.85;;;;;;;1.71;54.24;98893.53;5044848;28;20067;-77
2023/03/08 11:19:52;;;;;;;6.93;4.75;;;;;;;1.73;53.87;98894.28;5026269;28;20567;-77
2023/03/08 11:22:32;;;;;;;7.45;4.70;;;;;;;1.75;54.06;98903.09;5029289;28;20501;-76
2023/03/08 11:25:13;;;;;;;7.30;4.78;;;;;;;1.77;53.89;98906.50;5043805;28;20059;-76
2023/03/08 11:27:53;;;;;;;7.30;5.18;;;;;;;1.78;54.02;98898.31;5049557;28;20397;-77
2023/03/08 11:30:32;;;;;;;7.88;5.18;;;;;;;1.80;54.15;98892.78;5032237;28;20070;-76
2023/03/08 11:33:26;;;;;;;7.22;4.78;;;;;;;1.80;54.51;98882.84;5031649;28;20094;-77
2023/03/08 11:36:01;;;;;;;8.05;5.28;;;;;;;1.82;53.85;98863.84;5042541;28;20068;-76
2023/03/08 11:38:30;;;;;;;7.72;4.95;;;;;;;1.84;53.67;98870.81;5048544;28;20052;-77
2023/03/08 11:41:09;;;;;;;9.60;5.43;;;;;;;1.88;54.10;98871.44;5047562;28;20047;-77
2023/03/08 11:43:57;;;;;;;7.82;5.63;;;;;;;1.89;54.52;98873.16;5030977;28;20051;-77
2023/03/08 11:46:31;;;;;;;9.73;5.57;;;;;;;1.88;53.98;98879.53;5033751;28;20056;-77
2023/03/08 11:49:15;;;;;;;8.90;5.45;;;;;;;1.94;54.46;98886.25;5048254;28;20136;-77
2023/03/08 11:51:51;;;;;;;8.07;5.07;;;;;;;1.95;53.93;98893.34;5048827;28;20116;-77
2023/03/08 11:54:33;;;;;;;8.35;4.72;;;;;;;1.98;54.58;98883.16;5038370;28;20098;-77
2023/03/08 11:57:04;;;;;;;7.97;5.25;;;;;;;1.99;53.94;98867.84;5021151;28;20144;-77
2023/03/08 11:59:35;;;;;;;8.50;5.10;;;;;;;2.02;54.09;98868.44;5047958;28;20040;-77
2023/03/08 12:02:15;;;;;;;7.47;5.13;;;;;;;2.05;54.66;98857.38;5040355;28;20412;-77
2023/03/08 12:04:49;;;;;;;7.00;4.80;;;;;;;2.06;54.21;98869.91;5040901;28;20073;-77
2023/03/08 12:07:23;;;;;;;8.55;5.28;;;;;;;2.09;54.15;98868.75;5043778;28;20046;-77
2023/03/08 12:09:59;;;;;;;7.95;4.97;;;;;;;2.14;54.57;98866.56;5040405;28;20049;-77
2023/03/08 12:12:31;;;;;;;7.80;4.68;;;;;;;2.15;54.33;98868.25;5028079;28;20140;-77
2023/03/08 12:15:13;;;;;;;9.43;5.50;;;;;;;2.17;54.61;98863.56;5052261;28;20045;-77
2023/03/08 12:17:46;;;;;;;7.27;5.13;;;;;;;2.17;54.60;98859.03;5052561;28;20053;-77